e-Mail: Password: Lost your password? Click here. - Register a new user

c h a v e z j u a r e z . c o m

Weather - Tiempo - Wetter - Temps

METAR DATA MMMX (Mexico City)

Mexico City / Licenci, Mexico (MMMX) 19-26N 099-06W
Feb 22, 2019 - 12:51 PM EST / 2019.02.22 1751 UTC
Wind: from the SW (220 degrees) at 10 MPH (9 KT):0
Visibility: 12 mile(s):0
Sky conditions: mostly cloudy
Temperature: 75 F (24 C)
Dew Point: 28 F (-2 C)
Relative Humidity: 17%
Pressure (altimeter): 30.29 in. Hg (1025 hPa)
Pressure tendency: 0.02 inches (0.6 hPa) lower than three hours ago
ob: MMMX 221751Z 22009KT 12SM BKN250 24/M02 A3029 NOSIG RMK SLP061 57006 914 8/004 AC
cycle: 18

Mexico City

St. Prex




Current weather alarms for Switzerland


www.wetteralarm.ch